»·PEaware :: N172EL KSNA-KCRQ

N172EL :: KSNA-KCRQ

FLIGHT INFORMATION

Flight Status: Arrived
Operator: Privately registered:
United States
More flights under this callsign
Pilot: William W. (20687)
Aircraft: CESSNA 172 SKYHAWK
(C172)
More flights by this aircraft type
Origin: KSNA John Wayne-Orange Co
United States
Destination: KCRQ McClellan-Palomar
United States
More flights between these airports :: More routes between these airports
Route: +V23 OCN
File this flight plan on PilotEdge
Remarks: I-2 to palomar
Altitude:
(Current/Filed)
5,000ft
Speed:
(Current/Filed)
115kts
Departed: 05-Oct-18 05:17 PM
Arrived: 05-Oct-18 05:59 PM
Distance/Time
Traveled:
44nm/0:42
Distance/Time
To Go:
Arrived

Flight Plot

Page will automatically refresh every two minutes.


Map Options




Map Legend


Flown Route
Filed Route
Departure Airport
Arrival Airport
Navaid (VOR, NDB)
Fix

Horizontal Profiles

Position Reports

Time Latitude Longitude Heading Altitude Ground
Speed
05-Oct-18 17:10 33.675627 -117.871061 40 60ft 0kts
05-Oct-18 17:11 33.675627 -117.871061 40 60ft 0kts
05-Oct-18 17:12 33.675627 -117.871061 40 60ft 0kts
05-Oct-18 17:13 33.675627 -117.871061 40 60ft 0kts
05-Oct-18 17:14 33.675627 -117.871061 40 60ft 0kts
05-Oct-18 17:15 33.675627 -117.871061 40 60ft 0kts
05-Oct-18 17:16 33.675818 -117.870737 91 60ft 7kts
05-Oct-18 17:17 33.679589 -117.867971 17 60ft 21kts
05-Oct-18 17:18 33.681322 -117.866631 106 60ft 0kts
05-Oct-18 17:19 33.678928 -117.866697 205 60ft 56kts
05-Oct-18 17:20 33.660195 -117.879815 202 1022ft 80kts
05-Oct-18 17:21 33.639084 -117.883616 185 2066ft 78kts
05-Oct-18 17:22 33.617593 -117.886765 185 3028ft 79kts
05-Oct-18 17:23 33.595693 -117.889970 185 3964ft 80kts
05-Oct-18 17:24 33.574955 -117.887617 121 4845ft 81kts
05-Oct-18 17:25 33.559591 -117.858019 121 4998ft 119kts
05-Oct-18 17:26 33.541728 -117.823581 121 4994ft 122kts
05-Oct-18 17:27 33.524091 -117.788823 118 4994ft 122kts
05-Oct-18 17:28 33.507362 -117.753216 119 4988ft 122kts
05-Oct-18 17:29 33.490444 -117.717738 119 4987ft 122kts
05-Oct-18 17:30 33.470599 -117.685157 137 4989ft 122kts
05-Oct-18 17:31 33.445956 -117.656995 135 4988ft 123kts
05-Oct-18 17:32 33.421336 -117.628214 135 4985ft 123kts
05-Oct-18 17:33 33.396814 -117.599532 135 4982ft 123kts
05-Oct-18 17:34 33.372253 -117.570798 134 4979ft 123kts
05-Oct-18 17:35 33.348118 -117.541639 134 4979ft 123kts
05-Oct-18 17:36 33.323519 -117.512884 135 4975ft 123kts
05-Oct-18 17:37 33.298938 -117.484214 135 4974ft 123kts
05-Oct-18 17:38 33.274333 -117.455540 135 4973ft 123kts
05-Oct-18 17:39 33.249512 -117.427320 151 4967ft 123kts
05-Oct-18 17:40 33.237845 -117.394478 81 4974ft 122kts
05-Oct-18 17:41 33.242726 -117.354104 81 4972ft 123kts
05-Oct-18 17:42 33.247587 -117.314099 81 5018ft 122kts
05-Oct-18 17:43 33.252491 -117.273620 81 5016ft 123kts
05-Oct-18 17:44 33.257423 -117.233031 81 5014ft 123kts
05-Oct-18 17:45 33.262389 -117.192341 81 5011ft 123kts
05-Oct-18 17:46 33.267363 -117.151620 81 5009ft 123kts
05-Oct-18 17:47 33.272325 -117.111037 81 5009ft 123kts
05-Oct-18 17:48 33.277298 -117.070403 81 5005ft 123kts
05-Oct-18 17:49 33.275307 -117.031073 137 4905ft 126kts
05-Oct-18 17:50 33.240553 -117.026801 181 4333ft 129kts
05-Oct-18 17:51 33.204501 -117.028150 181 3797ft 126kts
05-Oct-18 17:52 33.172358 -117.029328 181 3780ft 108kts
05-Oct-18 17:53 33.143834 -117.034616 228 3782ft 105kts
05-Oct-18 17:54 33.149426 -117.066391 301 3707ft 112kts
05-Oct-18 17:55 33.156696 -117.102302 256 3288ft 118kts
05-Oct-18 17:56 33.150308 -117.141137 259 2636ft 120kts
05-Oct-18 17:57 33.144073 -117.180030 259 1960ft 114kts
05-Oct-18 17:58 33.138851 -117.212617 259 1398ft 84kts
05-Oct-18 17:59 33.135025 -117.238496 260 969ft 77kts
05-Oct-18 18:00 33.130906 -117.263871 258 538ft 80kts
05-Oct-18 18:01 33.127801 -117.282206 231 312ft 3kts
05-Oct-18 18:02 33.127065 -117.280859 100 311ft 0kts

Navigation Log

Ident Type
Flight plan parsing failed, navigation log unavailable